Time;durP1;ratioP1;P1;durP2;ratioP2;P2;SDS_P1;SDS_P2;PMS_P1;PMS_P2;Temp;Humidity;BMP_temperature;BMP_pressure;BME280_temperature;BME280_humidity;BME280_pressure;Samples;Min_cycle;Max_cycle;Signal;HPM_P1;HPM_P2
2022/04/29 00:03:33;;;;;;;9.98;4.32;;;;;;;8.25;100.00;102961.03;10163026;28;20069;-65
2022/04/29 00:08:29;;;;;;;14.73;3.88;;;;;;;8.37;100.00;102966.41;10163036;28;20043;-65
2022/04/29 00:13:26;;;;;;;15.88;5.15;;;;;;;8.13;100.00;102960.28;10161804;28;20041;-65
2022/04/29 00:18:22;;;;;;;14.50;5.82;;;;;;;8.24;100.00;102973.03;10198194;28;20088;-65
2022/04/29 00:23:19;;;;;;;23.45;5.50;;;;;;;8.09;100.00;102964.56;10182502;28;20448;-66
2022/04/29 00:28:15;;;;;;;17.85;5.78;;;;;;;7.93;100.00;102968.91;10197515;28;20050;-65
2022/04/29 00:33:12;;;;;;;13.88;5.10;;;;;;;8.08;100.00;102968.38;10176620;28;20046;-65
2022/04/29 00:38:15;;;;;;;15.18;5.95;;;;;;;8.02;100.00;102964.72;10197338;28;20116;-65
2022/04/29 00:43:12;;;;;;;;;;;;;;;7.99;100.00;102948.88;10172061;28;20077;-65
2022/04/29 00:48:09;;;;;;;19.02;4.95;;;;;;;7.95;100.00;102958.59;10196317;28;19926;-65
2022/04/29 00:53:09;;;;;;;15.20;5.50;;;;;;;7.87;100.00;102950.84;10196621;28;20080;-65
2022/04/29 00:58:24;;;;;;;16.15;5.22;;;;;;;7.89;100.00;102949.53;10182493;28;20086;-65
2022/04/29 01:03:21;;;;;;;19.13;5.97;;;;;;;7.64;100.00;102952.59;10159172;28;20046;-65
2022/04/29 01:08:17;;;;;;;17.23;6.75;;;;;;;7.60;100.00;102951.44;10171712;28;20057;-65
2022/04/29 01:13:15;;;;;;;14.65;5.78;;;;;;;7.60;100.00;102935.09;10157350;28;20039;-65
2022/04/29 01:18:13;;;;;;;15.93;6.18;;;;;;;7.56;100.00;102939.38;10194855;28;20504;-65
2022/04/29 01:23:11;;;;;;;17.17;5.55;;;;;;;7.53;100.00;102934.41;10195708;28;20136;-65
2022/04/29 01:28:08;;;;;;;12.73;6.63;;;;;;;7.40;100.00;102934.69;10158909;28;20085;-65
2022/04/29 01:33:06;;;;;;;20.25;6.60;;;;;;;7.47;100.00;102927.22;10155942;28;20103;-65
2022/04/29 01:38:02;;;;;;;15.18;5.60;;;;;;;7.47;100.00;102924.50;10194858;28;20074;-65
2022/04/29 01:42:58;;;;;;;11.27;5.55;;;;;;;7.59;100.00;102917.13;10181334;28;20066;-64
2022/04/29 01:47:55;;;;;;;17.98;8.02;;;;;;;7.61;100.00;102923.13;10193782;28;20174;-65
2022/04/29 01:52:51;;;;;;;15.32;6.10;;;;;;;7.61;100.00;102925.84;10168220;28;20145;-65
2022/04/29 01:57:52;;;;;;;19.67;6.65;;;;;;;7.54;100.00;102936.06;10186750;28;20070;-65
2022/04/29 02:02:49;;;;;;;13.60;6.03;;;;;;;7.48;100.00;102931.59;10154792;28;20181;-65
2022/04/29 02:07:45;;;;;;;17.15;6.95;;;;;;;7.43;100.00;102934.22;10172110;28;20050;-65
2022/04/29 02:12:43;;;;;;;17.33;6.68;;;;;;;7.26;100.00;102924.09;10154663;28;20477;-65
2022/04/29 02:17:39;;;;;;;19.02;6.82;;;;;;;7.20;100.00;102919.63;10164603;28;20062;-65
2022/04/29 02:22:36;;;;;;;13.05;7.65;;;;;;;7.17;100.00;102920.09;10154295;28;20134;-65
2022/04/29 02:27:32;;;;;;;18.42;7.10;;;;;;;7.19;100.00;102922.56;10154485;28;20521;-65
2022/04/29 02:32:30;;;;;;;16.00;6.57;;;;;;;7.16;100.00;102905.66;10152912;28;20092;-65
2022/04/29 02:37:27;;;;;;;14.80;7.30;;;;;;;7.15;100.00;102922.25;10189245;28;20068;-65
2022/04/29 02:42:23;;;;;;;12.77;7.13;;;;;;;7.14;100.00;102920.56;10193532;28;20503;-65
2022/04/29 02:47:20;;;;;;;16.45;7.45;;;;;;;7.06;100.00;102923.69;10193005;28;20046;-65
2022/04/29 02:52:16;;;;;;;17.02;7.43;;;;;;;7.03;100.00;102913.28;10172055;28;20467;-65
2022/04/29 02:57:13;;;;;;;13.88;6.90;;;;;;;6.97;100.00;102915.06;10187092;28;20069;-65
2022/04/29 03:02:09;;;;;;;22.05;10.48;;;;;;;6.94;100.00;102910.94;10193367;28;20512;-65
2022/04/29 03:07:06;;;;;;;16.88;7.13;;;;;;;6.95;100.00;102907.13;10186955;28;20405;-65
2022/04/29 03:12:03;;;;;;;15.95;7.93;;;;;;;6.88;100.00;102901.00;10154856;28;20046;-65
2022/04/29 03:16:59;;;;;;;11.73;7.25;;;;;;;6.78;100.00;102900.81;10173273;28;20046;-65
2022/04/29 03:21:56;;;;;;;17.92;8.05;;;;;;;6.61;100.00;102897.13;10160848;28;20051;-64
2022/04/29 03:26:52;;;;;;;18.30;7.65;;;;;;;6.77;100.00;102888.25;10197831;28;20068;-65
2022/04/29 03:31:48;;;;;;;14.00;7.30;;;;;;;6.77;100.00;102885.53;10185020;28;20069;-65
2022/04/29 03:36:45;;;;;;;16.45;7.22;;;;;;;6.82;100.00;102888.34;10190050;28;20045;-65
2022/04/29 03:41:41;;;;;;;16.52;8.00;;;;;;;6.91;100.00;102884.19;10199746;28;20100;-65
2022/04/29 03:46:38;;;;;;;17.38;7.65;;;;;;;6.87;100.00;102883.06;10196141;28;20037;-65
2022/04/29 03:51:34;;;;;;;14.65;8.05;;;;;;;6.81;100.00;102883.19;10159247;28;20074;-65
2022/04/29 03:56:31;;;;;;;16.17;7.38;;;;;;;6.83;100.00;102881.06;10186302;28;20128;-65
2022/04/29 04:01:27;;;;;;;14.77;7.05;;;;;;;6.77;100.00;102882.81;10173401;28;20062;-65
2022/04/29 04:11:39;;;;;;;15.70;7.68;;;;;;;6.83;100.00;102879.16;10159283;28;20073;-65
2022/04/29 04:16:36;;;;;;;16.65;7.78;;;;;;;6.84;100.00;102867.19;10163446;28;20070;-65
2022/04/29 04:21:33;;;;;;;21.83;8.00;;;;;;;6.79;100.00;102875.25;10158180;28;20046;-65
2022/04/29 04:26:29;;;;;;;14.70;6.97;;;;;;;6.78;100.00;102895.38;10184358;28;20058;-65
2022/04/29 04:31:26;;;;;;;17.33;8.25;;;;;;;6.72;100.00;102891.69;10190371;28;20479;-65
2022/04/29 04:36:23;;;;;;;15.55;7.93;;;;;;;6.62;100.00;102896.09;10184575;28;20049;-65
2022/04/29 04:41:19;;;;;;;15.38;8.18;;;;;;;6.72;100.00;102896.31;10196821;28;20084;-65
2022/04/29 04:46:16;;;;;;;15.40;8.10;;;;;;;6.66;100.00;102897.25;10196585;28;20097;-65
2022/04/29 04:51:13;;;;;;;12.27;7.10;;;;;;;6.69;100.00;102907.66;10178141;28;20113;-66
2022/04/29 04:56:09;;;;;;;14.48;7.55;;;;;;;6.70;100.00;102909.31;10182071;28;20719;-64
2022/04/29 05:01:06;;;;;;;16.77;8.13;;;;;;;6.71;100.00;102905.53;10163261;28;20078;-65
2022/04/29 05:06:03;;;;;;;14.57;7.10;;;;;;;6.76;100.00;102905.66;10177186;28;20415;-65
2022/04/29 05:10:59;;;;;;;17.10;6.95;;;;;;;6.82;100.00;102912.84;10156683;28;20073;-65
2022/04/29 05:15:57;;;;;;;18.90;8.50;;;;;;;6.79;100.00;102901.63;10168111;28;20504;-65
2022/04/29 05:20:53;;;;;;;19.23;9.15;;;;;;;6.93;100.00;102909.28;10155765;28;20047;-65
2022/04/29 05:25:50;;;;;;;15.57;8.30;;;;;;;6.87;100.00;102914.84;10160451;28;20073;-65
2022/04/29 05:30:48;;;;;;;17.15;7.90;;;;;;;6.74;100.00;102919.47;10155769;28;20061;-65
2022/04/29 05:35:45;;;;;;;18.70;9.13;;;;;;;6.81;100.00;102916.63;10176434;28;20053;-65
2022/04/29 05:45:56;;;;;;;13.70;8.15;;;;;;;6.94;100.00;102916.38;10191432;28;20574;-66
2022/04/29 05:50:53;;;;;;;16.13;7.60;;;;;;;6.98;100.00;102921.31;10193649;28;20125;-65
2022/04/29 05:55:50;;;;;;;13.82;6.47;;;;;;;6.97;100.00;102919.69;10177697;28;20042;-65
2022/04/29 06:00:46;;;;;;;16.38;7.00;;;;;;;7.04;100.00;102920.38;10181772;28;20066;-65
2022/04/29 06:05:42;;;;;;;19.67;7.07;;;;;;;7.18;100.00;102916.31;10175920;28;20081;-65
2022/04/29 06:10:39;;;;;;;16.17;6.63;;;;;;;7.14;100.00;102926.84;10177909;28;20136;-65
2022/04/29 06:15:35;;;;;;;14.73;6.68;;;;;;;7.21;100.00;102926.72;10174702;28;20069;-65
2022/04/29 06:20:32;;;;;;;14.55;6.65;;;;;;;7.33;100.00;102927.53;10175129;28;20038;-65
2022/04/29 06:25:28;;;;;;;13.88;6.18;;;;;;;7.26;100.00;102921.38;10174119;28;20121;-65
2022/04/29 06:30:25;;;;;;;13.10;7.00;;;;;;;7.40;100.00;102923.81;10158919;28;20058;-65
2022/04/29 06:35:42;;;;;;;14.55;6.60;;;;;;;7.46;100.00;102933.75;10173495;28;20054;-65
2022/04/29 06:40:39;;;;;;;13.00;6.47;;;;;;;7.55;100.00;102921.41;10154226;28;20049;-65
2022/04/29 06:45:35;;;;;;;18.58;6.63;;;;;;;7.55;100.00;102930.38;10154939;28;20096;-66
2022/04/29 06:50:32;;;;;;;14.68;6.50;;;;;;;7.70;100.00;102913.50;10160715;28;20043;-65
2022/04/29 06:55:28;;;;;;;12.30;5.90;;;;;;;7.94;100.00;102924.28;10181987;28;20042;-65
2022/04/29 07:00:25;;;;;;;12.10;4.88;;;;;;;8.06;100.00;102933.19;10201227;28;20114;-65
2022/04/29 07:05:23;;;;;;;8.20;4.22;;;;;;;8.23;100.00;102920.38;10181757;28;20149;-65
2022/04/29 07:10:20;;;;;;;7.85;3.65;;;;;;;8.29;100.00;102920.50;10196828;28;20073;-65
2022/04/29 07:15:17;;;;;;;10.63;4.53;;;;;;;8.50;100.00;102917.03;10178512;28;20088;-64
2022/04/29 07:20:15;;;;;;;12.75;4.20;;;;;;;8.58;100.00;102904.88;10182512;28;20088;-65
2022/04/29 07:25:13;;;;;;;8.45;3.03;;;;;;;8.76;100.00;102911.94;10177410;28;20192;-65
2022/04/29 07:30:11;;;;;;;6.95;2.63;;;;;;;8.97;100.00;102911.13;10167172;28;20046;-65
2022/04/29 07:45:39;;;;;;;7.65;2.72;;;;;;;9.51;100.00;102906.84;10180265;28;20125;-65
2022/04/29 07:50:36;;;;;;;8.27;2.97;;;;;;;9.30;100.00;102912.06;10199884;28;20449;-66
2022/04/29 07:55:32;;;;;;;10.70;2.58;;;;;;;9.81;100.00;102907.13;10195821;28;20042;-65
2022/04/29 08:00:32;;;;;;;10.55;2.97;;;;;;;10.10;100.00;102906.84;10198062;28;20583;-66
2022/04/29 08:05:49;;;;;;;11.88;3.10;;;;;;;10.14;100.00;102913.41;10196354;28;20129;-65
2022/04/29 08:10:46;;;;;;;7.57;2.50;;;;;;;10.24;100.00;102891.66;10198590;28;20077;-65
2022/04/29 08:15:45;;;;;;;7.20;2.20;;;;;;;10.52;100.00;102895.97;10187692;28;20516;-65
2022/04/29 08:20:43;;;;;;;10.77;2.78;;;;;;;10.58;100.00;102896.81;10186922;28;20070;-65
2022/04/29 08:25:39;;;;;;;7.63;3.00;;;;;;;10.50;100.00;102895.41;10179142;28;20091;-65
2022/04/29 08:30:36;;;;;;;9.32;2.97;;;;;;;10.39;100.00;102887.41;10173091;28;20129;-65
2022/04/29 08:35:33;;;;;;;9.00;2.30;;;;;;;10.26;100.00;102894.94;10177739;28;20053;-65
2022/04/29 08:40:30;;;;;;;8.48;2.80;;;;;;;10.39;100.00;102881.94;10168618;28;20104;-65
2022/04/29 08:45:26;;;;;;;7.53;2.45;;;;;;;10.29;100.00;102880.78;10169606;28;20042;-65
2022/04/29 08:50:23;;;;;;;8.85;2.30;;;;;;;10.15;100.00;102903.34;10157300;28;20043;-65
2022/04/29 09:00:41;;;;;;;7.18;2.65;;;;;;;10.41;96.72;102885.22;10195904;28;20061;-64
2022/04/29 09:05:39;;;;;;;;;;;;;;;10.59;99.46;102882.06;10183663;28;20439;-66
2022/04/29 09:10:36;;;;;;;6.93;2.50;;;;;;;10.73;100.00;102888.69;10194593;28;19956;-65
2022/04/29 09:15:33;;;;;;;14.77;2.55;;;;;;;10.95;100.00;102877.59;10181363;28;20102;-65
2022/04/29 09:20:29;;;;;;;9.23;2.17;;;;;;;11.33;98.48;102885.66;10195020;28;20049;-65
2022/04/29 09:25:34;;;;;;;6.75;1.90;;;;;;;11.40;92.68;102883.47;10191330;28;20050;-66
2022/04/29 09:30:41;;;;;;;5.03;1.80;;;;;;;11.41;90.16;102882.38;10190514;28;20070;-65
2022/04/29 09:35:40;;;;;;;7.20;1.98;;;;;;;11.92;88.47;102881.63;10176446;28;20041;-64
2022/04/29 09:40:38;;;;;;;7.88;2.30;;;;;;;11.96;82.42;102882.75;10188001;28;20046;-65
2022/04/29 09:45:35;;;;;;;8.20;2.05;;;;;;;12.38;84.10;102874.19;10176000;28;20116;-65
2022/04/29 09:51:04;;;;;;;8.95;2.03;;;;;;;12.33;84.24;102876.94;10194251;28;20050;-65
2022/04/29 09:56:05;;;;;;;14.43;1.92;;;;;;;12.76;74.94;102869.13;10162487;28;20054;-66
2022/04/29 10:01:04;;;;;;;6.63;1.27;;;;;;;12.85;66.23;102867.44;10155133;28;20567;-66
2022/04/29 10:06:02;;;;;;;7.45;1.48;;;;;;;13.00;66.18;102877.56;10178059;28;20050;-66
2022/04/29 10:11:00;;;;;;;6.47;1.80;;;;;;;13.46;61.62;102865.53;10193624;28;20053;-66
2022/04/29 10:15:57;;;;;;;5.10;1.60;;;;;;;14.87;58.35;102860.88;10170503;28;20054;-66
2022/04/29 10:26:10;;;;;;;4.93;1.50;;;;;;;15.93;49.95;102856.03;10193810;28;20062;-66
2022/04/29 10:31:07;;;;;;;5.43;1.92;;;;;;;16.41;47.14;102858.47;10174681;28;20073;-66
2022/04/29 10:36:09;;;;;;;5.68;1.52;;;;;;;17.17;49.15;102858.88;10177698;28;20097;-66
2022/04/29 10:41:14;;;;;;;6.45;1.60;;;;;;;17.35;46.83;102859.81;10172985;28;20728;-66
2022/04/29 10:46:13;;;;;;;8.88;2.15;;;;;;;16.93;46.13;102858.28;10179563;28;20419;-65
2022/04/29 10:51:21;;;;;;;4.68;1.50;;;;;;;16.62;47.07;102851.41;10192936;28;20042;-66
2022/04/29 10:56:26;;;;;;;5.65;1.77;;;;;;;16.72;48.06;102853.16;10193215;28;20050;-66
2022/04/29 11:01:27;;;;;;;3.60;1.45;;;;;;;15.56;45.32;102846.69;10164315;28;20050;-66
2022/04/29 11:06:40;;;;;;;5.60;1.40;;;;;;;15.72;43.81;102837.06;10179627;28;20100;-66
2022/04/29 11:11:43;;;;;;;4.75;1.98;;;;;;;16.73;43.52;102842.91;10159037;28;20504;-66
2022/04/29 11:16:53;;;;;;;6.53;1.98;;;;;;;16.77;44.71;102827.38;10175959;28;20050;-66
2022/04/29 11:27:11;;;;;;;6.38;1.75;;;;;;;18.02;42.51;102819.47;10169730;28;20050;-66
2022/04/29 11:32:07;;;;;;;3.78;1.50;;;;;;;18.02;42.50;102816.69;10152607;28;20108;-66
2022/04/29 11:37:12;;;;;;;7.78;1.80;;;;;;;17.90;40.40;102810.94;10193920;28;20054;-66
2022/04/29 11:42:17;;;;;;;5.28;1.75;;;;;;;18.00;40.50;102807.91;10190030;28;20043;-66
2022/04/29 11:47:13;;;;;;;4.70;1.95;;;;;;;17.49;38.65;102809.19;10192956;28;20072;-66
2022/04/29 11:52:22;;;;;;;5.55;1.60;;;;;;;17.62;40.43;102800.00;10187753;28;20050;-66
2022/04/29 11:57:21;;;;;;;5.72;1.83;;;;;;;16.71;41.92;102800.97;10193161;28;20124;-66
2022/04/29 12:02:20;;;;;;;7.13;1.77;;;;;;;17.15;42.51;102799.47;10185798;28;20050;-66
2022/04/29 12:07:17;;;;;;;7.38;1.52;;;;;;;16.78;40.98;102795.88;10192077;28;20052;-66
2022/04/29 12:12:27;;;;;;;5.30;1.90;;;;;;;16.39;41.79;102788.94;10183474;28;20074;-67
2022/04/29 12:17:50;;;;;;;4.30;1.65;;;;;;;15.93;46.12;102787.06;10193249;28;20104;-66
2022/04/29 12:22:48;;;;;;;5.63;1.73;;;;;;;16.10;45.11;102776.25;10174071;28;20129;-66
2022/04/29 12:27:45;;;;;;;8.15;2.30;;;;;;;15.98;45.29;102767.66;10196042;28;20476;-66
2022/04/29 12:37:59;;;;;;;10.13;2.55;;;;;;;16.10;46.42;102765.19;10165409;28;20189;-66
2022/04/29 12:43:13;;;;;;;7.82;2.28;;;;;;;16.25;45.97;102760.53;10196886;28;20053;-66
2022/04/29 12:48:16;;;;;;;6.50;2.15;;;;;;;16.34;45.99;102747.66;10183365;28;20104;-66
2022/04/29 12:53:16;;;;;;;9.23;2.95;;;;;;;15.97;44.82;102741.19;10158611;28;20552;-66
2022/04/29 12:58:17;;;;;;;9.10;2.42;;;;;;;16.02;46.81;102741.09;10164668;28;20572;-66
2022/04/29 13:03:27;;;;;;;7.75;2.70;;;;;;;15.95;45.37;102741.50;10157638;28;20338;-66
2022/04/29 13:08:24;;;;;;;4.47;2.47;;;;;;;15.61;46.67;102741.00;10159905;28;20054;-66
2022/04/29 13:13:23;;;;;;;6.18;2.80;;;;;;;15.69;48.96;102738.38;10159388;28;20492;-66
2022/04/29 13:18:20;;;;;;;10.82;2.92;;;;;;;15.84;49.47;102728.22;10194767;28;20129;-66
2022/04/29 13:23:16;;;;;;;11.95;3.05;;;;;;;15.97;48.14;102721.88;10180661;28;20057;-66
2022/04/29 13:28:13;;;;;;;7.15;2.97;;;;;;;15.83;49.33;102715.53;10195074;28;20069;-66
2022/04/29 13:33:09;;;;;;;9.57;3.10;;;;;;;15.53;48.14;102712.19;10178320;28;20524;-66
2022/04/29 13:38:07;;;;;;;5.72;2.78;;;;;;;15.54;49.47;102713.81;10194801;28;20050;-66
2022/04/29 13:43:07;;;;;;;8.07;3.65;;;;;;;15.40;49.21;102707.47;10173362;28;20091;-66
2022/04/29 13:48:04;;;;;;;7.07;3.15;;;;;;;15.06;50.58;102698.38;10194888;28;20554;-66
2022/04/29 13:53:09;;;;;;;7.95;3.47;;;;;;;15.16;50.81;102697.41;10171843;28;20038;-66
2022/04/29 13:58:07;;;;;;;6.70;2.80;;;;;;;15.06;52.97;102692.03;10154749;28;20125;-66
2022/04/29 14:03:04;;;;;;;10.90;3.30;;;;;;;14.88;55.62;102690.97;10155163;28;20077;-66
2022/04/29 14:08:01;;;;;;;7.07;2.72;;;;;;;15.04;58.53;102681.34;10193467;28;20050;-66
2022/04/29 14:13:01;;;;;;;5.78;2.55;;;;;;;15.15;59.67;102666.28;10193679;28;20080;-67
2022/04/29 14:17:57;;;;;;;7.25;2.60;;;;;;;15.10;58.34;102676.53;10164021;28;20137;-66
2022/04/29 14:22:53;;;;;;;5.63;3.47;;;;;;;14.81;58.97;102663.78;10154136;28;20089;-67
2022/04/29 14:27:51;;;;;;;9.73;3.95;;;;;;;14.51;61.54;102663.09;10192047;28;20084;-67
2022/04/29 14:32:47;;;;;;;8.27;2.60;;;;;;;14.86;62.26;102660.94;10189593;28;20105;-66
2022/04/29 14:37:45;;;;;;;6.07;2.05;;;;;;;14.83;63.34;102660.72;10204320;28;20100;-64
2022/04/29 14:42:42;;;;;;;10.40;2.40;;;;;;;14.80;60.47;102653.88;10163674;28;20120;-67
2022/04/29 14:47:39;;;;;;;6.38;2.40;;;;;;;14.72;61.90;102649.88;10189161;28;20129;-67
2022/04/29 14:52:36;;;;;;;9.90;3.25;;;;;;;14.38;62.86;102652.00;10192493;28;20516;-67
2022/04/29 14:57:35;;;;;;;8.05;2.45;;;;;;;14.53;61.27;102641.59;10177645;28;20054;-66
2022/04/29 15:02:31;;;;;;;6.20;2.53;;;;;;;14.54;59.32;102642.44;10153677;28;20182;-66
2022/04/29 15:07:29;;;;;;;11.00;2.88;;;;;;;14.40;58.94;102642.34;10157717;28;20089;-66
2022/04/29 15:17:50;;;;;;;10.60;3.00;;;;;;;13.77;64.14;102650.84;10198589;28;20108;-66
2022/04/29 15:22:46;;;;;;;5.43;2.78;;;;;;;13.86;67.49;102643.59;10187271;28;20555;-66
2022/04/29 15:27:43;;;;;;;8.63;3.80;;;;;;;13.61;69.85;102637.28;10197411;28;20076;-67
2022/04/29 15:32:40;;;;;;;6.32;3.40;;;;;;;13.73;68.30;102638.81;10185985;28;20516;-67
2022/04/29 15:37:36;;;;;;;14.25;5.32;;;;;;;13.51;69.51;102642.88;10196361;28;20096;-66
2022/04/29 15:42:33;;;;;;;7.38;3.33;;;;;;;13.46;71.44;102637.44;10173925;28;20100;-67
2022/04/29 15:47:29;;;;;;;8.85;4.70;;;;;;;13.30;71.71;102641.44;10195237;28;20392;-67
2022/04/29 15:52:26;;;;;;;8.65;3.15;;;;;;;13.26;75.74;102639.25;10173579;28;20054;-66
2022/04/29 15:57:22;;;;;;;7.55;2.80;;;;;;;13.41;73.00;102632.81;10193311;28;20072;-67
2022/04/29 16:02:19;;;;;;;8.32;3.22;;;;;;;13.23;73.37;102631.59;10199247;28;20060;-66
2022/04/29 16:07:16;;;;;;;7.88;2.67;;;;;;;13.21;71.56;102633.00;10188673;28;20050;-65
2022/04/29 16:12:12;;;;;;;7.18;2.70;;;;;;;13.12;72.51;102624.56;10158561;28;20073;-66
2022/04/29 16:17:08;;;;;;;6.47;2.33;;;;;;;12.99;81.41;102622.47;10170282;28;20054;-65
2022/04/29 16:22:05;;;;;;;7.50;3.15;;;;;;;12.90;91.58;102621.44;10159016;28;20065;-64
2022/04/29 16:27:01;;;;;;;6.28;2.60;;;;;;;12.87;97.91;102624.75;10164197;28;20078;-65
2022/04/29 16:31:58;;;;;;;10.85;3.42;;;;;;;12.72;100.00;102621.03;10157354;28;20468;-66
2022/04/29 16:36:58;;;;;;;7.65;3.58;;;;;;;12.64;100.00;102616.97;10187424;28;20132;-66
2022/04/29 16:41:55;;;;;;;6.65;3.53;;;;;;;12.43;100.00;102619.03;10197812;28;20508;-67
2022/04/29 16:46:51;;;;;;;7.80;3.60;;;;;;;12.63;100.00;102623.56;10168490;28;20662;-66
2022/04/29 16:51:47;;;;;;;7.50;3.33;;;;;;;12.68;100.00;102619.97;10157678;28;20046;-66
2022/04/29 17:02:00;;;;;;;10.40;3.67;;;;;;;12.52;100.00;102615.69;10196175;28;20613;-67
2022/04/29 17:06:57;;;;;;;7.82;4.18;;;;;;;12.50;100.00;102612.41;10195673;28;20050;-66
2022/04/29 17:11:53;;;;;;;8.02;4.03;;;;;;;12.40;100.00;102608.63;10178489;28;20081;-66
2022/04/29 17:16:50;;;;;;;9.52;4.32;;;;;;;12.31;100.00;102604.03;10186043;28;20080;-67
2022/04/29 17:21:46;;;;;;;11.30;4.43;;;;;;;12.30;100.00;102614.19;10165995;28;20105;-67
2022/04/29 17:26:43;;;;;;;11.32;4.97;;;;;;;12.18;100.00;102609.03;10184689;28;20480;-67
2022/04/29 17:31:40;;;;;;;14.48;5.38;;;;;;;12.16;100.00;102618.63;10154910;28;20051;-66
2022/04/29 17:36:37;;;;;;;9.13;4.00;;;;;;;12.15;100.00;102611.50;10169366;28;20108;-67
2022/04/29 17:46:49;;;;;;;6.57;3.22;;;;;;;11.73;100.00;102615.50;10155858;28;20081;-66
2022/04/29 17:51:45;;;;;;;6.82;2.95;;;;;;;11.56;100.00;102611.16;10154818;28;20508;-67
2022/04/29 17:56:41;;;;;;;9.40;3.78;;;;;;;11.64;100.00;102623.47;10183552;28;20119;-66
2022/04/29 18:01:38;;;;;;;9.13;3.67;;;;;;;11.44;99.96;102624.34;10186495;28;20066;-67
2022/04/29 18:06:35;;;;;;;9.82;3.60;;;;;;;11.35;97.97;102615.06;10182810;28;20397;-66
2022/04/29 18:11:31;;;;;;;7.90;3.05;;;;;;;11.34;98.88;102618.88;10171520;28;20058;-66
2022/04/29 18:16:29;;;;;;;12.30;3.10;;;;;;;11.21;100.00;102627.66;10180781;28;20156;-67
2022/04/29 18:21:26;;;;;;;15.70;3.50;;;;;;;11.11;98.83;102634.78;10165613;28;20133;-66
2022/04/29 18:26:22;;;;;;;8.10;2.88;;;;;;;10.89;100.00;102631.53;10178821;28;20508;-65
2022/04/29 18:31:19;;;;;;;6.95;2.90;;;;;;;10.80;100.00;102633.97;10153306;28;20046;-66
2022/04/29 18:36:16;;;;;;;8.50;2.97;;;;;;;10.73;100.00;102641.63;10173186;28;20141;-66
2022/04/29 18:41:12;;;;;;;9.77;4.50;;;;;;;10.76;100.00;102643.81;10153841;28;20101;-66
2022/04/29 18:46:10;;;;;;;7.43;4.07;;;;;;;10.59;100.00;102646.00;10159409;28;20125;-66
2022/04/29 18:51:08;;;;;;;8.63;3.97;;;;;;;10.68;100.00;102653.38;10161197;28;20050;-66
2022/04/29 18:56:04;;;;;;;9.70;4.22;;;;;;;10.47;100.00;102654.44;10186106;28;20088;-66
2022/04/29 19:01:03;;;;;;;8.77;3.28;;;;;;;10.57;100.00;102654.44;10201550;28;20042;-67
2022/04/29 19:05:59;;;;;;;10.40;3.83;;;;;;;10.47;100.00;102651.72;10200454;28;20565;-66
2022/04/29 19:10:57;;;;;;;12.48;5.75;;;;;;;10.48;100.00;102650.59;10196682;28;20092;-66
2022/04/29 19:15:54;;;;;;;8.50;3.58;;;;;;;10.46;100.00;102659.06;10183519;28;20463;-66
2022/04/29 19:20:51;;;;;;;10.43;3.55;;;;;;;10.42;100.00;102665.34;10184349;28;20512;-66
2022/04/29 19:25:47;;;;;;;5.60;2.75;;;;;;;10.28;100.00;102657.66;10181568;28;20104;-66
2022/04/29 19:30:45;;;;;;;9.35;2.70;;;;;;;10.20;100.00;102666.34;10169908;28;20069;-66
2022/04/29 19:36:02;;;;;;;12.52;4.30;;;;;;;10.13;100.00;102671.25;10183317;28;20045;-66
2022/04/29 19:40:59;;;;;;;8.63;4.47;;;;;;;10.12;100.00;102669.59;10164241;28;20137;-67
2022/04/29 19:45:56;;;;;;;10.07;4.18;;;;;;;10.06;100.00;102671.47;10182914;28;20072;-66
2022/04/29 19:50:52;;;;;;;8.57;4.07;;;;;;;9.94;100.00;102670.06;10162166;28;20073;-66
2022/04/29 19:55:49;;;;;;;10.60;4.68;;;;;;;9.98;100.00;102663.81;10173552;28;20133;-66
2022/04/29 20:00:45;;;;;;;10.25;3.33;;;;;;;9.88;100.00;102661.81;10159110;28;20070;-66
2022/04/29 20:05:42;;;;;;;11.00;3.40;;;;;;;9.78;100.00;102664.50;10171863;28;20070;-66
2022/04/29 20:10:38;;;;;;;8.80;3.50;;;;;;;9.67;100.00;102663.63;10158138;28;20062;-66
2022/04/29 20:15:35;;;;;;;6.53;3.30;;;;;;;9.51;100.00;102663.78;10160377;28;20427;-66
2022/04/29 20:20:34;;;;;;;12.15;3.17;;;;;;;9.48;100.00;102671.41;10158379;28;20042;-66
2022/04/29 20:25:31;;;;;;;12.00;3.60;;;;;;;9.35;100.00;102666.44;10178939;28;20117;-66
2022/04/29 20:30:27;;;;;;;9.18;3.47;;;;;;;9.36;100.00;102667.25;10182592;28;20073;-66
2022/04/29 20:35:24;;;;;;;9.50;3.42;;;;;;;9.27;100.00;102675.09;10176260;28;20042;-65
2022/04/29 20:45:36;;;;;;;6.55;3.03;;;;;;;9.28;100.00;102676.72;10178426;28;20061;-66
2022/04/29 20:50:33;;;;;;;7.90;3.13;;;;;;;9.27;100.00;102675.09;10156959;28;20677;-65
2022/04/29 20:55:29;;;;;;;12.57;3.80;;;;;;;9.24;100.00;102670.16;10191407;28;20096;-65
2022/04/29 21:00:26;;;;;;;12.25;3.83;;;;;;;9.12;100.00;102667.63;10157203;28;20393;-65
2022/04/29 21:05:22;;;;;;;12.32;3.50;;;;;;;9.10;100.00;102668.94;10173065;28;20069;-65
2022/04/29 21:10:18;;;;;;;7.75;3.60;;;;;;;8.94;100.00;102666.09;10156530;28;20081;-65
2022/04/29 21:15:15;;;;;;;10.73;4.22;;;;;;;8.96;100.00;102663.94;10173236;28;20042;-65
2022/04/29 21:20:13;;;;;;;8.82;3.83;;;;;;;8.91;100.00;102666.63;10195921;28;20093;-65
2022/04/29 21:25:10;;;;;;;12.18;4.28;;;;;;;8.87;100.00;102665.47;10193723;28;20046;-65
2022/04/29 21:35:22;;;;;;;11.95;4.28;;;;;;;8.64;100.00;102670.16;10175004;28;20046;-65
2022/04/29 21:40:19;;;;;;;11.13;4.10;;;;;;;8.62;100.00;102675.06;10188303;28;20133;-65
2022/04/29 21:45:16;;;;;;;8.57;3.30;;;;;;;8.46;100.00;102670.50;10173598;28;20052;-65
2022/04/29 21:50:12;;;;;;;11.63;3.72;;;;;;;8.46;100.00;102665.06;10185338;28;20057;-66
2022/04/29 21:55:09;;;;;;;10.60;3.63;;;;;;;8.43;100.00;102662.84;10171994;28;20181;-65
2022/04/29 22:00:08;;;;;;;11.48;3.20;;;;;;;8.34;100.00;102661.63;10177871;28;20108;-65
2022/04/29 22:05:05;;;;;;;11.93;4.85;;;;;;;8.33;100.00;102665.41;10171805;28;20100;-63
2022/04/29 22:10:02;;;;;;;14.25;4.22;;;;;;;8.32;100.00;102663.78;10163649;28;20057;-64
2022/04/29 22:14:59;;;;;;;11.23;4.63;;;;;;;8.34;100.00;102664.34;10166608;28;20089;-63
2022/04/29 22:19:55;;;;;;;12.52;4.30;;;;;;;8.21;100.00;102673.72;10154041;28;20081;-62
2022/04/29 22:24:53;;;;;;;10.80;4.00;;;;;;;8.15;100.00;102659.22;10169243;28;20072;-62
2022/04/29 22:29:49;;;;;;;13.93;4.00;;;;;;;8.20;100.00;102656.56;10194282;28;20173;-62
2022/04/29 22:34:46;;;;;;;18.63;9.70;;;;;;;8.12;100.00;102654.31;10191185;28;20076;-62
2022/04/29 22:39:43;;;;;;;19.55;8.85;;;;;;;8.04;100.00;102665.63;10193047;28;20054;-62
2022/04/29 22:44:39;;;;;;;13.32;5.85;;;;;;;8.00;100.00;102667.19;10193624;28;20046;-62
2022/04/29 22:49:36;;;;;;;9.82;3.78;;;;;;;7.90;100.00;102661.63;10173584;28;20509;-63
2022/04/29 22:54:34;;;;;;;11.77;4.32;;;;;;;8.00;100.00;102664.47;10165372;28;20548;-62
2022/04/29 22:59:30;;;;;;;10.18;3.92;;;;;;;7.84;100.00;102657.19;10170880;28;20057;-65
2022/04/29 23:04:27;;;;;;;11.40;5.05;;;;;;;7.80;100.00;102654.97;10163612;28;20077;-65
2022/04/29 23:09:29;;;;;;;15.18;5.47;;;;;;;7.72;100.00;102652.66;10153416;28;20046;-65
2022/04/29 23:14:30;;;;;;;12.27;4.60;;;;;;;7.58;100.00;102659.56;10167432;28;20046;-65
2022/04/29 23:19:26;;;;;;;10.73;4.57;;;;;;;7.38;100.00;102649.19;10192470;28;20049;-65
2022/04/29 23:24:23;;;;;;;16.77;4.82;;;;;;;7.25;100.00;102644.91;10181871;28;20068;-65
2022/04/29 23:29:19;;;;;;;13.05;4.18;;;;;;;7.35;100.00;102638.78;10194611;28;20074;-65
2022/04/29 23:34:15;;;;;;;12.95;4.70;;;;;;;7.25;100.00;102644.91;10198770;28;20082;-65
2022/04/29 23:39:12;;;;;;;11.88;5.50;;;;;;;7.23;100.00;102644.31;10199990;28;20528;-65
2022/04/29 23:44:09;;;;;;;13.98;5.60;;;;;;;6.99;100.00;102640.13;10199858;28;20074;-66
2022/04/29 23:49:07;;;;;;;13.50;4.70;;;;;;;7.05;100.00;102636.41;10190576;28;20073;-65